Аэропорт: Кокшетау. Кокшетау

ICAO: UACK

METAR:
2018/05/20 11:30
UACK 201130Z 26010MPS CAVOK 25/02 Q1018 R20/010070 NOSIG RMK QFE739/0986
METAR:
2014/11/02 12:00
TAF UACK 021140Z 0212/0221 CNL